Licenciado Gustavo Díaz Ordaz International Airport
MMPR : now visible

Airfield :











YOU CAN JOIN US ON...

 
LOGIN :

Register | Disclaimer

   EN    FR    IT 

 









Legend :    VFR   Marginal VFR   IFR   Intensive IFR   Very Intensive IFR
Visi :
Ceiling :
>= 8 km
>= 3000ft
5 to 8 km
1000 to 3000 ft
1500m to 5 km
500 to 1000 ft
800 to 1500m
200 to 500 ft
< 800m
< 200 ft
Symbols :   Thunderstorms  Fog  Heavy snow  Heavy precipitations  Wind > 20 kt







- Airport Elevation : 23 ft
- IATA code : PVR


MMPR - Licenciado Gustavo Díaz Ordaz International

CURRENT METAR :
  • 190845Z 00000KT 12SM BKN250 28/27 A2983 RMK SLP098 57007 953 8/008

EXPIRED METARs :
  • 190745Z 04004KT 12SM BKN250 28/27 A2984 RMK 8/008
  • 190643Z 00000KT 12SM SCT020 SCT250 28/25 A2984 RMK 8/502

TAF TAF MMPR
Valid from the 19 at 06:00 until the 20 at 12:00 UTC


190512Z 1906/2012 03005KT P6SM SCT020 SCT250 TX34/1920Z TN26/1912Z
FM191600 20010KT P6SM SCT020 SCT250
FM192200 23010KT P6SM SCT020CB BKN080
TEMPO 2000/2004 2SM TSRA BKN012CB
No reported NOTAMs for that airfield.



MET'MAP, your aeronautical weather chart ! - Copyright ORBIFLY December 2007 - Disclaimer

ORBIFLY MET'MAP TEAM :

Programming & Development : Alexandra Zaïnal
Concept & Development : Baudouin d'Aumeries
Co-Development & Prog : Marc-Olivier Méhu
Technical & hardware support : Manuel Goepfert

Contact : metmap@orbifly.com




SOURCES & CREDITS :

   NOAA       Earth
Advisory